sensor_id;sensor_type;location;lat;lon;timestamp;P1;durP1;ratioP1;P2;durP2;ratioP2
45296;SDS011;31040;51.622;10.420;2023-07-29T00:01:45;1.50;;;1.40;;
45296;SDS011;31040;51.622;10.420;2023-07-29T00:04:13;1.90;;;1.70;;
45296;SDS011;31040;51.622;10.420;2023-07-29T00:06:40;1.42;;;1.30;;
45296;SDS011;31040;51.622;10.420;2023-07-29T00:09:08;2.20;;;1.48;;
45296;SDS011;31040;51.622;10.420;2023-07-29T00:11:35;3.83;;;1.95;;
45296;SDS011;31040;51.622;10.420;2023-07-29T00:14:02;2.08;;;1.63;;
45296;SDS011;31040;51.622;10.420;2023-07-29T00:16:30;2.83;;;2.05;;
45296;SDS011;31040;51.622;10.420;2023-07-29T00:18:57;1.60;;;1.50;;
45296;SDS011;31040;51.622;10.420;2023-07-29T00:21:25;4.70;;;1.70;;
45296;SDS011;31040;51.622;10.420;2023-07-29T00:23:52;1.73;;;1.50;;
45296;SDS011;31040;51.622;10.420;2023-07-29T00:26:20;1.40;;;1.30;;
45296;SDS011;31040;51.622;10.420;2023-07-29T00:28:48;2.38;;;2.00;;
45296;SDS011;31040;51.622;10.420;2023-07-29T00:31:15;1.83;;;1.73;;
45296;SDS011;31040;51.622;10.420;2023-07-29T00:33:43;1.95;;;1.50;;
45296;SDS011;31040;51.622;10.420;2023-07-29T00:36:10;2.00;;;1.60;;
45296;SDS011;31040;51.622;10.420;2023-07-29T00:38:38;1.73;;;1.52;;
45296;SDS011;31040;51.622;10.420;2023-07-29T00:41:05;1.65;;;1.55;;
45296;SDS011;31040;51.622;10.420;2023-07-29T00:43:33;2.90;;;1.50;;
45296;SDS011;31040;51.622;10.420;2023-07-29T00:46:01;1.95;;;1.77;;
45296;SDS011;31040;51.622;10.420;2023-07-29T00:48:28;2.75;;;2.08;;
45296;SDS011;31040;51.622;10.420;2023-07-29T00:50:56;3.15;;;2.10;;
45296;SDS011;31040;51.622;10.420;2023-07-29T00:53:24;2.60;;;1.95;;
45296;SDS011;31040;51.622;10.420;2023-07-29T00:55:51;1.95;;;1.83;;
45296;SDS011;31040;51.622;10.420;2023-07-29T00:58:19;1.75;;;1.65;;
45296;SDS011;31040;51.622;10.420;2023-07-29T01:00:46;1.48;;;1.38;;
45296;SDS011;31040;51.622;10.420;2023-07-29T01:03:14;1.70;;;1.60;;
45296;SDS011;31040;51.622;10.420;2023-07-29T01:08:42;1.92;;;1.83;;
45296;SDS011;31040;51.622;10.420;2023-07-29T01:13:55;2.17;;;1.60;;
45296;SDS011;31040;51.622;10.420;2023-07-29T01:16:27;2.88;;;1.90;;
45296;SDS011;31040;51.622;10.420;2023-07-29T01:18:57;2.00;;;1.80;;
45296;SDS011;31040;51.622;10.420;2023-07-29T01:21:27;2.22;;;1.77;;
45296;SDS011;31040;51.622;10.420;2023-07-29T01:23:58;2.50;;;1.70;;
45296;SDS011;31040;51.622;10.420;2023-07-29T01:26:26;2.15;;;1.77;;
45296;SDS011;31040;51.622;10.420;2023-07-29T01:28:56;1.52;;;1.42;;
45296;SDS011;31040;51.622;10.420;2023-07-29T01:31:30;2.45;;;1.73;;
45296;SDS011;31040;51.622;10.420;2023-07-29T01:34:09;2.25;;;1.40;;
45296;SDS011;31040;51.622;10.420;2023-07-29T01:36:40;1.98;;;1.30;;
45296;SDS011;31040;51.622;10.420;2023-07-29T01:39:12;2.67;;;1.40;;
45296;SDS011;31040;51.622;10.420;2023-07-29T01:41:41;1.75;;;1.60;;
45296;SDS011;31040;51.622;10.420;2023-07-29T01:44:10;2.75;;;1.75;;
45296;SDS011;31040;51.622;10.420;2023-07-29T01:46:37;3.33;;;1.65;;
45296;SDS011;31040;51.622;10.420;2023-07-29T01:49:05;3.00;;;1.90;;
45296;SDS011;31040;51.622;10.420;2023-07-29T01:51:32;2.53;;;2.33;;
45296;SDS011;31040;51.622;10.420;2023-07-29T01:54:00;1.85;;;1.70;;
45296;SDS011;31040;51.622;10.420;2023-07-29T01:56:27;2.17;;;2.00;;
45296;SDS011;31040;51.622;10.420;2023-07-29T01:58:54;3.22;;;2.00;;
45296;SDS011;31040;51.622;10.420;2023-07-29T02:01:22;2.30;;;2.10;;
45296;SDS011;31040;51.622;10.420;2023-07-29T02:03:50;1.75;;;1.60;;
45296;SDS011;31040;51.622;10.420;2023-07-29T02:06:22;3.38;;;1.85;;
45296;SDS011;31040;51.622;10.420;2023-07-29T02:08:49;4.30;;;1.90;;
45296;SDS011;31040;51.622;10.420;2023-07-29T02:11:17;2.50;;;2.00;;
45296;SDS011;31040;51.622;10.420;2023-07-29T02:13:46;2.85;;;2.30;;
45296;SDS011;31040;51.622;10.420;2023-07-29T02:16:14;1.75;;;1.65;;
45296;SDS011;31040;51.622;10.420;2023-07-29T02:18:41;1.92;;;1.75;;
45296;SDS011;31040;51.622;10.420;2023-07-29T02:21:09;4.30;;;2.25;;
45296;SDS011;31040;51.622;10.420;2023-07-29T02:23:36;2.92;;;1.95;;
45296;SDS011;31040;51.622;10.420;2023-07-29T02:26:04;2.13;;;1.90;;
45296;SDS011;31040;51.622;10.420;2023-07-29T02:28:31;3.78;;;2.38;;
45296;SDS011;31040;51.622;10.420;2023-07-29T02:33:44;2.00;;;1.90;;
45296;SDS011;31040;51.622;10.420;2023-07-29T02:36:12;2.40;;;1.85;;
45296;SDS011;31040;51.622;10.420;2023-07-29T02:38:40;2.75;;;1.90;;
45296;SDS011;31040;51.622;10.420;2023-07-29T02:41:08;3.03;;;2.00;;
45296;SDS011;31040;51.622;10.420;2023-07-29T02:43:36;2.22;;;1.95;;
45296;SDS011;31040;51.622;10.420;2023-07-29T02:46:03;4.13;;;1.80;;
45296;SDS011;31040;51.622;10.420;2023-07-29T02:48:31;2.75;;;2.28;;
45296;SDS011;31040;51.622;10.420;2023-07-29T02:50:59;1.55;;;1.45;;
45296;SDS011;31040;51.622;10.420;2023-07-29T02:53:26;3.13;;;1.80;;
45296;SDS011;31040;51.622;10.420;2023-07-29T02:55:53;4.47;;;2.40;;
45296;SDS011;31040;51.622;10.420;2023-07-29T02:58:21;4.97;;;2.92;;
45296;SDS011;31040;51.622;10.420;2023-07-29T03:00:48;3.88;;;2.50;;
45296;SDS011;31040;51.622;10.420;2023-07-29T03:03:16;2.85;;;2.53;;
45296;SDS011;31040;51.622;10.420;2023-07-29T03:05:46;3.08;;;2.70;;
45296;SDS011;31040;51.622;10.420;2023-07-29T03:08:13;2.58;;;2.38;;
45296;SDS011;31040;51.622;10.420;2023-07-29T03:10:41;3.08;;;2.20;;
45296;SDS011;31040;51.622;10.420;2023-07-29T03:13:08;2.38;;;2.10;;
45296;SDS011;31040;51.622;10.420;2023-07-29T03:15:36;2.35;;;2.15;;
45296;SDS011;31040;51.622;10.420;2023-07-29T03:18:04;4.15;;;2.33;;
45296;SDS011;31040;51.622;10.420;2023-07-29T03:20:31;4.20;;;2.88;;
45296;SDS011;31040;51.622;10.420;2023-07-29T03:22:58;3.15;;;2.30;;
45296;SDS011;31040;51.622;10.420;2023-07-29T03:25:26;4.50;;;2.63;;
45296;SDS011;31040;51.622;10.420;2023-07-29T03:27:54;2.20;;;2.00;;
45296;SDS011;31040;51.622;10.420;2023-07-29T03:30:21;4.18;;;2.50;;
45296;SDS011;31040;51.622;10.420;2023-07-29T03:32:49;1.98;;;1.88;;
45296;SDS011;31040;51.622;10.420;2023-07-29T03:35:16;2.10;;;1.90;;
45296;SDS011;31040;51.622;10.420;2023-07-29T03:37:44;2.30;;;2.10;;
45296;SDS011;31040;51.622;10.420;2023-07-29T03:40:12;3.50;;;2.40;;
45296;SDS011;31040;51.622;10.420;2023-07-29T03:42:39;2.83;;;2.35;;
45296;SDS011;31040;51.622;10.420;2023-07-29T03:45:07;2.88;;;2.20;;
45296;SDS011;31040;51.622;10.420;2023-07-29T03:47:34;2.65;;;2.42;;
45296;SDS011;31040;51.622;10.420;2023-07-29T03:50:02;3.55;;;2.17;;
45296;SDS011;31040;51.622;10.420;2023-07-29T03:52:29;3.13;;;2.35;;
45296;SDS011;31040;51.622;10.420;2023-07-29T03:54:56;3.30;;;2.53;;
45296;SDS011;31040;51.622;10.420;2023-07-29T03:57:24;2.65;;;2.45;;
45296;SDS011;31040;51.622;10.420;2023-07-29T03:59:51;6.30;;;2.65;;
45296;SDS011;31040;51.622;10.420;2023-07-29T04:02:19;3.33;;;3.03;;
45296;SDS011;31040;51.622;10.420;2023-07-29T04:04:46;4.35;;;3.10;;
45296;SDS011;31040;51.622;10.420;2023-07-29T04:07:14;4.10;;;2.92;;
45296;SDS011;31040;51.622;10.420;2023-07-29T04:09:42;5.38;;;3.78;;
45296;SDS011;31040;51.622;10.420;2023-07-29T04:12:10;3.83;;;3.53;;
45296;SDS011;31040;51.622;10.420;2023-07-29T04:14:38;4.05;;;3.67;;
45296;SDS011;31040;51.622;10.420;2023-07-29T04:17:05;6.18;;;3.72;;
45296;SDS011;31040;51.622;10.420;2023-07-29T04:19:33;5.03;;;3.22;;
45296;SDS011;31040;51.622;10.420;2023-07-29T04:22:00;3.45;;;3.00;;
45296;SDS011;31040;51.622;10.420;2023-07-29T04:24:28;3.83;;;2.80;;
45296;SDS011;31040;51.622;10.420;2023-07-29T04:26:55;4.68;;;3.00;;
45296;SDS011;31040;51.622;10.420;2023-07-29T04:29:22;2.65;;;2.45;;
45296;SDS011;31040;51.622;10.420;2023-07-29T04:31:50;2.70;;;2.50;;
45296;SDS011;31040;51.622;10.420;2023-07-29T04:34:18;4.60;;;3.08;;
45296;SDS011;31040;51.622;10.420;2023-07-29T04:36:46;3.28;;;2.80;;
45296;SDS011;31040;51.622;10.420;2023-07-29T04:39:14;4.15;;;3.03;;
45296;SDS011;31040;51.622;10.420;2023-07-29T04:41:42;3.25;;;2.65;;
45296;SDS011;31040;51.622;10.420;2023-07-29T04:44:09;4.75;;;3.50;;
45296;SDS011;31040;51.622;10.420;2023-07-29T04:46:36;3.42;;;3.00;;
45296;SDS011;31040;51.622;10.420;2023-07-29T04:49:05;4.15;;;2.90;;
45296;SDS011;31040;51.622;10.420;2023-07-29T04:51:32;5.43;;;3.40;;
45296;SDS011;31040;51.622;10.420;2023-07-29T04:54:00;5.72;;;3.00;;
45296;SDS011;31040;51.622;10.420;2023-07-29T04:56:27;4.28;;;2.83;;
45296;SDS011;31040;51.622;10.420;2023-07-29T04:58:55;5.57;;;3.72;;
45296;SDS011;31040;51.622;10.420;2023-07-29T05:01:22;4.22;;;3.65;;
45296;SDS011;31040;51.622;10.420;2023-07-29T05:03:49;5.13;;;3.13;;
45296;SDS011;31040;51.622;10.420;2023-07-29T05:06:18;3.60;;;3.30;;
45296;SDS011;31040;51.622;10.420;2023-07-29T05:08:46;4.03;;;3.33;;
45296;SDS011;31040;51.622;10.420;2023-07-29T05:11:13;5.70;;;3.20;;
45296;SDS011;31040;51.622;10.420;2023-07-29T05:13:41;9.35;;;3.88;;
45296;SDS011;31040;51.622;10.420;2023-07-29T05:16:10;11.00;;;3.63;;
45296;SDS011;31040;51.622;10.420;2023-07-29T05:18:37;6.50;;;3.25;;
45296;SDS011;31040;51.622;10.420;2023-07-29T05:21:05;3.60;;;2.75;;
45296;SDS011;31040;51.622;10.420;2023-07-29T05:23:32;5.15;;;3.17;;
45296;SDS011;31040;51.622;10.420;2023-07-29T05:25:59;4.18;;;2.92;;
45296;SDS011;31040;51.622;10.420;2023-07-29T05:28:27;4.03;;;3.33;;
45296;SDS011;31040;51.622;10.420;2023-07-29T05:30:54;4.47;;;3.55;;
45296;SDS011;31040;51.622;10.420;2023-07-29T05:33:22;4.25;;;2.95;;
45296;SDS011;31040;51.622;10.420;2023-07-29T05:35:49;3.45;;;3.00;;
45296;SDS011;31040;51.622;10.420;2023-07-29T05:38:17;5.97;;;3.38;;
45296;SDS011;31040;51.622;10.420;2023-07-29T05:40:44;5.22;;;3.15;;
45296;SDS011;31040;51.622;10.420;2023-07-29T05:43:11;5.88;;;3.08;;
45296;SDS011;31040;51.622;10.420;2023-07-29T05:45:40;5.03;;;3.40;;
45296;SDS011;31040;51.622;10.420;2023-07-29T05:48:08;4.10;;;3.70;;
45296;SDS011;31040;51.622;10.420;2023-07-29T05:50:35;4.20;;;3.38;;
45296;SDS011;31040;51.622;10.420;2023-07-29T05:53:02;5.72;;;3.88;;
45296;SDS011;31040;51.622;10.420;2023-07-29T05:55:30;4.65;;;4.25;;
45296;SDS011;31040;51.622;10.420;2023-07-29T05:57:57;4.40;;;3.97;;
45296;SDS011;31040;51.622;10.420;2023-07-29T06:00:25;4.65;;;3.78;;
45296;SDS011;31040;51.622;10.420;2023-07-29T06:02:52;4.93;;;3.72;;
45296;SDS011;31040;51.622;10.420;2023-07-29T06:05:20;4.20;;;3.80;;
45296;SDS011;31040;51.622;10.420;2023-07-29T06:07:47;3.72;;;3.42;;
45296;SDS011;31040;51.622;10.420;2023-07-29T06:10:15;5.10;;;4.68;;
45296;SDS011;31040;51.622;10.420;2023-07-29T06:12:45;9.10;;;3.92;;
45296;SDS011;31040;51.622;10.420;2023-07-29T06:15:12;3.88;;;3.58;;
45296;SDS011;31040;51.622;10.420;2023-07-29T06:17:40;5.88;;;4.07;;
45296;SDS011;31040;51.622;10.420;2023-07-29T06:20:08;5.22;;;3.58;;
45296;SDS011;31040;51.622;10.420;2023-07-29T06:22:35;5.47;;;3.67;;
45296;SDS011;31040;51.622;10.420;2023-07-29T06:25:03;3.92;;;3.63;;
45296;SDS011;31040;51.622;10.420;2023-07-29T06:27:31;3.92;;;3.53;;
45296;SDS011;31040;51.622;10.420;2023-07-29T06:29:58;3.85;;;3.53;;
45296;SDS011;31040;51.622;10.420;2023-07-29T06:32:25;3.67;;;3.08;;
45296;SDS011;31040;51.622;10.420;2023-07-29T06:34:53;4.03;;;3.10;;
45296;SDS011;31040;51.622;10.420;2023-07-29T06:37:20;4.03;;;3.10;;
45296;SDS011;31040;51.622;10.420;2023-07-29T06:39:48;3.08;;;2.83;;
45296;SDS011;31040;51.622;10.420;2023-07-29T06:42:16;3.15;;;2.90;;
45296;SDS011;31040;51.622;10.420;2023-07-29T06:44:43;3.40;;;3.10;;
45296;SDS011;31040;51.622;10.420;2023-07-29T06:47:12;4.65;;;3.47;;
45296;SDS011;31040;51.622;10.420;2023-07-29T06:49:39;3.60;;;3.40;;
45296;SDS011;31040;51.622;10.420;2023-07-29T06:52:07;3.42;;;3.22;;
45296;SDS011;31040;51.622;10.420;2023-07-29T06:54:34;3.50;;;3.20;;
45296;SDS011;31040;51.622;10.420;2023-07-29T06:57:02;7.32;;;4.47;;
45296;SDS011;31040;51.622;10.420;2023-07-29T06:59:29;6.30;;;3.85;;
45296;SDS011;31040;51.622;10.420;2023-07-29T07:01:57;3.85;;;3.65;;
45296;SDS011;31040;51.622;10.420;2023-07-29T07:04:26;4.50;;;4.10;;
45296;SDS011;31040;51.622;10.420;2023-07-29T07:06:53;3.90;;;3.60;;
45296;SDS011;31040;51.622;10.420;2023-07-29T07:09:21;3.58;;;3.38;;
45296;SDS011;31040;51.622;10.420;2023-07-29T07:11:48;3.88;;;3.58;;
45296;SDS011;31040;51.622;10.420;2023-07-29T07:14:15;4.07;;;3.78;;
45296;SDS011;31040;51.622;10.420;2023-07-29T07:16:43;4.30;;;3.90;;
45296;SDS011;31040;51.622;10.420;2023-07-29T07:19:11;4.07;;;3.67;;
45296;SDS011;31040;51.622;10.420;2023-07-29T07:21:38;4.80;;;3.65;;
45296;SDS011;31040;51.622;10.420;2023-07-29T07:24:05;6.93;;;3.60;;
45296;SDS011;31040;51.622;10.420;2023-07-29T07:26:33;4.43;;;3.28;;
45296;SDS011;31040;51.622;10.420;2023-07-29T07:29:01;3.67;;;3.38;;
45296;SDS011;31040;51.622;10.420;2023-07-29T07:31:32;3.80;;;3.50;;
45296;SDS011;31040;51.622;10.420;2023-07-29T07:34:00;6.78;;;4.18;;
45296;SDS011;31040;51.622;10.420;2023-07-29T07:36:29;11.20;;;4.05;;
45296;SDS011;31040;51.622;10.420;2023-07-29T07:38:57;6.85;;;4.13;;
45296;SDS011;31040;51.622;10.420;2023-07-29T07:41:24;4.18;;;3.88;;
45296;SDS011;31040;51.622;10.420;2023-07-29T07:43:52;7.07;;;3.97;;
45296;SDS011;31040;51.622;10.420;2023-07-29T07:46:19;3.78;;;3.55;;
45296;SDS011;31040;51.622;10.420;2023-07-29T07:48:46;3.75;;;3.47;;
45296;SDS011;31040;51.622;10.420;2023-07-29T07:51:14;3.75;;;3.38;;
45296;SDS011;31040;51.622;10.420;2023-07-29T07:53:41;4.28;;;3.33;;
45296;SDS011;31040;51.622;10.420;2023-07-29T07:56:09;3.50;;;3.25;;
45296;SDS011;31040;51.622;10.420;2023-07-29T07:58:36;3.58;;;3.20;;
45296;SDS011;31040;51.622;10.420;2023-07-29T08:01:07;3.45;;;3.25;;
45296;SDS011;31040;51.622;10.420;2023-07-29T08:03:35;3.45;;;2.67;;
45296;SDS011;31040;51.622;10.420;2023-07-29T08:06:02;3.60;;;3.30;;
45296;SDS011;31040;51.622;10.420;2023-07-29T08:08:32;3.78;;;3.47;;
45296;SDS011;31040;51.622;10.420;2023-07-29T08:10:59;4.45;;;3.80;;
45296;SDS011;31040;51.622;10.420;2023-07-29T08:13:27;4.03;;;3.60;;
45296;SDS011;31040;51.622;10.420;2023-07-29T08:15:54;2.97;;;2.78;;
45296;SDS011;31040;51.622;10.420;2023-07-29T08:18:22;4.18;;;2.75;;
45296;SDS011;31040;51.622;10.420;2023-07-29T08:20:53;2.90;;;2.70;;
45296;SDS011;31040;51.622;10.420;2023-07-29T08:23:21;2.97;;;2.78;;
45296;SDS011;31040;51.622;10.420;2023-07-29T08:25:55;3.42;;;2.95;;
45296;SDS011;31040;51.622;10.420;2023-07-29T08:28:31;2.90;;;2.70;;
45296;SDS011;31040;51.622;10.420;2023-07-29T08:30:59;3.42;;;3.22;;
45296;SDS011;31040;51.622;10.420;2023-07-29T08:33:27;2.42;;;2.33;;
45296;SDS011;31040;51.622;10.420;2023-07-29T08:35:57;2.58;;;2.42;;
45296;SDS011;31040;51.622;10.420;2023-07-29T08:38:24;3.17;;;2.88;;
45296;SDS011;31040;51.622;10.420;2023-07-29T08:41:14;2.95;;;2.70;;
45296;SDS011;31040;51.622;10.420;2023-07-29T08:44:30;3.10;;;2.90;;
45296;SDS011;31040;51.622;10.420;2023-07-29T08:46:29;3.10;;;2.90;;
45296;SDS011;31040;51.622;10.420;2023-07-29T08:48:57;2.90;;;2.70;;
45296;SDS011;31040;51.622;10.420;2023-07-29T08:51:24;2.75;;;2.55;;
45296;SDS011;31040;51.622;10.420;2023-07-29T08:53:52;3.10;;;2.90;;
45296;SDS011;31040;51.622;10.420;2023-07-29T08:56:20;3.30;;;3.00;;
45296;SDS011;31040;51.622;10.420;2023-07-29T08:58:47;2.97;;;2.67;;
45296;SDS011;31040;51.622;10.420;2023-07-29T09:01:15;2.70;;;2.50;;
45296;SDS011;31040;51.622;10.420;2023-07-29T09:03:43;3.13;;;2.80;;
45296;SDS011;31040;51.622;10.420;2023-07-29T09:06:11;3.33;;;3.13;;
45296;SDS011;31040;51.622;10.420;2023-07-29T09:08:39;2.83;;;2.63;;
45296;SDS011;31040;51.622;10.420;2023-07-29T09:11:06;2.70;;;2.50;;
45296;SDS011;31040;51.622;10.420;2023-07-29T09:13:34;3.28;;;2.97;;
45296;SDS011;31040;51.622;10.420;2023-07-29T09:16:02;2.80;;;2.60;;
45296;SDS011;31040;51.622;10.420;2023-07-29T09:18:31;2.85;;;2.65;;
45296;SDS011;31040;51.622;10.420;2023-07-29T09:20:59;3.63;;;2.20;;
45296;SDS011;31040;51.622;10.420;2023-07-29T09:23:38;2.90;;;2.60;;
45296;SDS011;31040;51.622;10.420;2023-07-29T09:26:06;3.20;;;2.53;;
45296;SDS011;31040;51.622;10.420;2023-07-29T09:28:34;2.58;;;2.42;;
45296;SDS011;31040;51.622;10.420;2023-07-29T09:31:02;3.20;;;2.80;;
45296;SDS011;31040;51.622;10.420;2023-07-29T09:33:34;2.72;;;2.53;;
45296;SDS011;31040;51.622;10.420;2023-07-29T09:36:08;2.80;;;2.45;;
45296;SDS011;31040;51.622;10.420;2023-07-29T09:38:36;2.42;;;2.22;;
45296;SDS011;31040;51.622;10.420;2023-07-29T09:41:04;2.20;;;2.10;;
45296;SDS011;31040;51.622;10.420;2023-07-29T09:43:32;2.53;;;2.42;;
45296;SDS011;31040;51.622;10.420;2023-07-29T09:46:00;2.70;;;2.50;;
45296;SDS011;31040;51.622;10.420;2023-07-29T09:48:28;2.90;;;2.70;;
45296;SDS011;31040;51.622;10.420;2023-07-29T09:50:59;2.67;;;2.47;;
45296;SDS011;31040;51.622;10.420;2023-07-29T09:53:26;2.90;;;2.60;;
45296;SDS011;31040;51.622;10.420;2023-07-29T09:55:54;5.18;;;2.58;;
45296;SDS011;31040;51.622;10.420;2023-07-29T09:58:27;2.92;;;2.40;;
45296;SDS011;31040;51.622;10.420;2023-07-29T10:00:55;2.53;;;2.35;;
45296;SDS011;31040;51.622;10.420;2023-07-29T10:03:22;2.58;;;2.38;;
45296;SDS011;31040;51.622;10.420;2023-07-29T10:05:51;2.65;;;2.30;;
45296;SDS011;31040;51.622;10.420;2023-07-29T10:08:18;2.38;;;2.17;;
45296;SDS011;31040;51.622;10.420;2023-07-29T10:10:46;2.58;;;2.38;;
45296;SDS011;31040;51.622;10.420;2023-07-29T10:13:13;2.53;;;2.33;;
45296;SDS011;31040;51.622;10.420;2023-07-29T10:15:42;2.20;;;2.00;;
45296;SDS011;31040;51.622;10.420;2023-07-29T10:18:11;2.53;;;2.33;;
45296;SDS011;31040;51.622;10.420;2023-07-29T10:20:38;2.40;;;2.20;;
45296;SDS011;31040;51.622;10.420;2023-07-29T10:23:07;2.85;;;2.25;;
45296;SDS011;31040;51.622;10.420;2023-07-29T10:25:39;2.42;;;1.73;;
45296;SDS011;31040;51.622;10.420;2023-07-29T10:28:10;2.40;;;2.20;;
45296;SDS011;31040;51.622;10.420;2023-07-29T10:30:39;1.65;;;1.55;;
45296;SDS011;31040;51.622;10.420;2023-07-29T10:33:06;2.15;;;1.50;;
45296;SDS011;31040;51.622;10.420;2023-07-29T10:35:34;2.05;;;1.80;;
45296;SDS011;31040;51.622;10.420;2023-07-29T10:38:02;2.42;;;2.22;;
45296;SDS011;31040;51.622;10.420;2023-07-29T10:40:47;2.67;;;2.47;;
45296;SDS011;31040;51.622;10.420;2023-07-29T10:43:18;2.20;;;1.92;;
45296;SDS011;31040;51.622;10.420;2023-07-29T10:45:46;2.30;;;2.10;;
45296;SDS011;31040;51.622;10.420;2023-07-29T10:53:55;3.22;;;2.20;;
45296;SDS011;31040;51.622;10.420;2023-07-29T10:59:22;2.60;;;2.40;;
45296;SDS011;31040;51.622;10.420;2023-07-29T11:01:53;2.95;;;2.42;;
45296;SDS011;31040;51.622;10.420;2023-07-29T11:09:39;4.13;;;3.70;;
45296;SDS011;31040;51.622;10.420;2023-07-29T11:14:53;2.80;;;2.60;;
45296;SDS011;31040;51.622;10.420;2023-07-29T11:17:20;3.08;;;2.88;;
45296;SDS011;31040;51.622;10.420;2023-07-29T11:19:48;3.08;;;2.88;;
45296;SDS011;31040;51.622;10.420;2023-07-29T11:22:16;3.40;;;3.10;;
45296;SDS011;31040;51.622;10.420;2023-07-29T11:24:43;3.45;;;3.15;;
45296;SDS011;31040;51.622;10.420;2023-07-29T11:27:11;6.78;;;3.10;;
45296;SDS011;31040;51.622;10.420;2023-07-29T11:29:38;2.80;;;2.47;;
45296;SDS011;31040;51.622;10.420;2023-07-29T11:32:06;5.70;;;2.85;;
45296;SDS011;31040;51.622;10.420;2023-07-29T11:34:34;2.78;;;2.58;;
45296;SDS011;31040;51.622;10.420;2023-07-29T11:37:01;3.20;;;2.95;;
45296;SDS011;31040;51.622;10.420;2023-07-29T11:39:28;2.88;;;2.60;;
45296;SDS011;31040;51.622;10.420;2023-07-29T11:41:56;3.08;;;2.58;;
45296;SDS011;31040;51.622;10.420;2023-07-29T11:44:24;2.92;;;2.60;;
45296;SDS011;31040;51.622;10.420;2023-07-29T11:46:52;1.88;;;1.77;;
45296;SDS011;31040;51.622;10.420;2023-07-29T11:49:19;4.03;;;2.45;;
45296;SDS011;31040;51.622;10.420;2023-07-29T11:51:46;4.38;;;2.10;;
45296;SDS011;31040;51.622;10.420;2023-07-29T11:54:14;1.40;;;1.30;;
45296;SDS011;31040;51.622;10.420;2023-07-29T11:56:42;3.28;;;1.80;;
45296;SDS011;31040;51.622;10.420;2023-07-29T11:59:10;2.03;;;1.40;;
45296;SDS011;31040;51.622;10.420;2023-07-29T12:01:38;3.53;;;1.80;;
45296;SDS011;31040;51.622;10.420;2023-07-29T12:04:05;2.53;;;1.85;;
45296;SDS011;31040;51.622;10.420;2023-07-29T12:06:33;2.60;;;1.70;;
45296;SDS011;31040;51.622;10.420;2023-07-29T12:09:01;3.90;;;1.90;;
45296;SDS011;31040;51.622;10.420;2023-07-29T12:11:29;4.43;;;1.90;;
45296;SDS011;31040;51.622;10.420;2023-07-29T12:13:56;4.35;;;1.80;;
45296;SDS011;31040;51.622;10.420;2023-07-29T12:16:24;2.67;;;2.25;;
45296;SDS011;31040;51.622;10.420;2023-07-29T12:18:51;2.40;;;2.15;;
45296;SDS011;31040;51.622;10.420;2023-07-29T12:21:19;2.88;;;2.53;;
45296;SDS011;31040;51.622;10.420;2023-07-29T12:23:46;4.20;;;2.78;;
45296;SDS011;31040;51.622;10.420;2023-07-29T12:26:14;3.00;;;2.70;;
45296;SDS011;31040;51.622;10.420;2023-07-29T12:28:44;4.32;;;3.58;;
45296;SDS011;31040;51.622;10.420;2023-07-29T12:31:13;3.83;;;3.53;;
45296;SDS011;31040;51.622;10.420;2023-07-29T12:33:40;3.53;;;3.22;;
45296;SDS011;31040;51.622;10.420;2023-07-29T12:36:08;4.78;;;4.10;;
45296;SDS011;31040;51.622;10.420;2023-07-29T12:38:37;4.00;;;3.70;;
45296;SDS011;31040;51.622;10.420;2023-07-29T12:41:04;5.15;;;4.65;;
45296;SDS011;31040;51.622;10.420;2023-07-29T12:43:32;4.53;;;4.10;;
45296;SDS011;31040;51.622;10.420;2023-07-29T12:46:01;4.90;;;4.50;;
45296;SDS011;31040;51.622;10.420;2023-07-29T12:48:29;5.07;;;4.32;;
45296;SDS011;31040;51.622;10.420;2023-07-29T12:50:56;4.63;;;4.03;;
45296;SDS011;31040;51.622;10.420;2023-07-29T12:53:23;4.13;;;3.75;;
45296;SDS011;31040;51.622;10.420;2023-07-29T12:55:51;4.90;;;4.55;;
45296;SDS011;31040;51.622;10.420;2023-07-29T12:58:18;4.15;;;3.85;;
45296;SDS011;31040;51.622;10.420;2023-07-29T13:00:46;4.10;;;3.80;;
45296;SDS011;31040;51.622;10.420;2023-07-29T13:03:13;5.18;;;4.78;;
45296;SDS011;31040;51.622;10.420;2023-07-29T13:05:41;4.15;;;3.75;;
45296;SDS011;31040;51.622;10.420;2023-07-29T13:08:08;4.80;;;4.10;;
45296;SDS011;31040;51.622;10.420;2023-07-29T13:10:36;4.53;;;3.47;;
45296;SDS011;31040;51.622;10.420;2023-07-29T13:13:04;4.20;;;2.90;;
45296;SDS011;31040;51.622;10.420;2023-07-29T13:15:31;3.72;;;3.20;;
45296;SDS011;31040;51.622;10.420;2023-07-29T13:17:59;4.47;;;3.20;;
45296;SDS011;31040;51.622;10.420;2023-07-29T13:20:26;3.63;;;3.33;;
45296;SDS011;31040;51.622;10.420;2023-07-29T13:22:54;7.30;;;3.70;;
45296;SDS011;31040;51.622;10.420;2023-07-29T13:25:24;3.55;;;2.80;;
45296;SDS011;31040;51.622;10.420;2023-07-29T13:27:52;3.20;;;2.97;;
45296;SDS011;31040;51.622;10.420;2023-07-29T13:30:19;2.70;;;2.50;;
45296;SDS011;31040;51.622;10.420;2023-07-29T13:32:46;2.67;;;2.47;;
45296;SDS011;31040;51.622;10.420;2023-07-29T13:35:14;2.08;;;1.90;;
45296;SDS011;31040;51.622;10.420;2023-07-29T13:37:41;2.08;;;1.83;;
45296;SDS011;31040;51.622;10.420;2023-07-29T13:40:09;1.80;;;1.70;;
45296;SDS011;31040;51.622;10.420;2023-07-29T13:42:36;1.92;;;1.80;;
45296;SDS011;31040;51.622;10.420;2023-07-29T13:45:04;6.30;;;2.10;;
45296;SDS011;31040;51.622;10.420;2023-07-29T13:47:31;2.00;;;1.90;;
45296;SDS011;31040;51.622;10.420;2023-07-29T13:49:59;2.05;;;1.95;;
45296;SDS011;31040;51.622;10.420;2023-07-29T13:52:27;2.50;;;2.30;;
45296;SDS011;31040;51.622;10.420;2023-07-29T13:54:54;1.85;;;1.73;;
45296;SDS011;31040;51.622;10.420;2023-07-29T13:57:22;3.75;;;2.00;;
45296;SDS011;31040;51.622;10.420;2023-07-29T13:59:49;1.80;;;1.50;;
45296;SDS011;31040;51.622;10.420;2023-07-29T14:02:16;1.27;;;1.20;;
45296;SDS011;31040;51.622;10.420;2023-07-29T14:04:44;2.05;;;1.30;;
45296;SDS011;31040;51.622;10.420;2023-07-29T14:07:11;1.45;;;1.35;;
45296;SDS011;31040;51.622;10.420;2023-07-29T14:09:39;1.67;;;1.58;;
45296;SDS011;31040;51.622;10.420;2023-07-29T14:12:07;1.80;;;1.38;;
45296;SDS011;31040;51.622;10.420;2023-07-29T14:14:38;1.48;;;1.30;;
45296;SDS011;31040;51.622;10.420;2023-07-29T14:17:06;1.42;;;1.20;;
45296;SDS011;31040;51.622;10.420;2023-07-29T14:19:34;1.80;;;1.27;;
45296;SDS011;31040;51.622;10.420;2023-07-29T14:22:02;2.28;;;1.25;;
45296;SDS011;31040;51.622;10.420;2023-07-29T14:24:29;1.70;;;1.30;;
45296;SDS011;31040;51.622;10.420;2023-07-29T14:26:57;1.20;;;1.10;;
45296;SDS011;31040;51.622;10.420;2023-07-29T14:29:24;1.95;;;1.27;;
45296;SDS011;31040;51.622;10.420;2023-07-29T14:31:52;1.40;;;1.30;;
45296;SDS011;31040;51.622;10.420;2023-07-29T14:34:19;1.50;;;1.40;;
45296;SDS011;31040;51.622;10.420;2023-07-29T14:36:47;1.65;;;1.35;;
45296;SDS011;31040;51.622;10.420;2023-07-29T14:39:14;1.80;;;1.70;;
45296;SDS011;31040;51.622;10.420;2023-07-29T14:41:41;1.05;;;1.05;;
45296;SDS011;31040;51.622;10.420;2023-07-29T14:44:09;1.50;;;1.40;;
45296;SDS011;31040;51.622;10.420;2023-07-29T14:46:36;1.45;;;1.35;;
45296;SDS011;31040;51.622;10.420;2023-07-29T14:49:04;1.40;;;1.30;;
45296;SDS011;31040;51.622;10.420;2023-07-29T14:51:32;1.35;;;1.25;;
45296;SDS011;31040;51.622;10.420;2023-07-29T14:53:59;1.00;;;1.00;;
45296;SDS011;31040;51.622;10.420;2023-07-29T14:56:26;1.58;;;1.48;;
45296;SDS011;31040;51.622;10.420;2023-07-29T14:58:54;1.40;;;1.30;;
45296;SDS011;31040;51.622;10.420;2023-07-29T15:01:21;1.35;;;1.25;;
45296;SDS011;31040;51.622;10.420;2023-07-29T15:03:49;2.20;;;1.45;;